createdAt,value
2017-07-30T00:00:37.747Z,18.00
2017-07-30T00:03:05.277Z,18.00
2017-07-30T00:05:33.582Z,18.00
2017-07-30T00:08:01.049Z,18.00
2017-07-30T00:10:28.522Z,18.00
2017-07-30T00:12:55.984Z,17.90
2017-07-30T00:15:23.496Z,18.00
2017-07-30T00:17:51.732Z,17.90
2017-07-30T00:20:19.304Z,17.90
2017-07-30T00:22:46.779Z,17.90
2017-07-30T00:25:15.042Z,17.80
2017-07-30T00:27:43.314Z,17.80
2017-07-30T00:30:10.868Z,17.80
2017-07-30T00:32:38.429Z,17.70
2017-07-30T00:35:05.991Z,17.70
2017-07-30T00:37:33.581Z,17.70
2017-07-30T00:40:01.051Z,17.80
2017-07-30T00:42:28.558Z,17.70
2017-07-30T00:44:56.028Z,17.70
2017-07-30T00:47:24.301Z,17.70
2017-07-30T00:49:51.884Z,17.70
2017-07-30T00:52:20.086Z,17.70
2017-07-30T00:54:47.590Z,17.70
2017-07-30T00:57:15.833Z,17.70
2017-07-30T00:59:43.308Z,17.70
2017-07-30T01:02:10.782Z,17.70
2017-07-30T01:04:38.251Z,17.70
2017-07-30T01:07:06.516Z,17.70
2017-07-30T01:09:34.765Z,17.70
2017-07-30T01:12:02.238Z,17.70
2017-07-30T01:14:29.697Z,17.60
2017-07-30T01:16:57.179Z,17.60
2017-07-30T01:19:24.710Z,17.60
2017-07-30T01:21:52.267Z,17.60
2017-07-30T01:24:19.745Z,17.60
2017-07-30T01:26:48.005Z,17.50
2017-07-30T01:29:15.602Z,17.50
2017-07-30T01:31:43.120Z,17.50
2017-07-30T01:34:10.680Z,17.50
2017-07-30T01:36:38.143Z,17.50
2017-07-30T01:39:06.392Z,17.40
2017-07-30T01:41:33.864Z,17.40
2017-07-30T01:44:01.335Z,17.40
2017-07-30T01:46:29.596Z,17.30
2017-07-30T01:48:57.150Z,17.30
2017-07-30T01:51:24.715Z,17.30
2017-07-30T01:53:52.187Z,17.30
2017-07-30T01:56:20.424Z,17.20
2017-07-30T01:58:47.886Z,17.20
2017-07-30T02:01:15.357Z,17.20
2017-07-30T02:03:42.822Z,17.20
2017-07-30T02:06:10.383Z,17.20
2017-07-30T02:08:38.646Z,17.20
2017-07-30T02:11:06.111Z,17.20
2017-07-30T02:13:33.672Z,17.20
2017-07-30T02:16:01.239Z,17.10
2017-07-30T02:18:29.473Z,17.10
2017-07-30T02:20:57.159Z,17.10
2017-07-30T02:23:24.636Z,17.20
2017-07-30T02:25:52.890Z,17.20
2017-07-30T02:28:20.454Z,17.10
2017-07-30T02:30:47.923Z,17.20
2017-07-30T02:33:16.160Z,17.20
2017-07-30T02:35:43.771Z,17.20
2017-07-30T02:38:11.239Z,17.20
2017-07-30T02:40:38.695Z,17.20
2017-07-30T02:43:06.250Z,17.20
2017-07-30T02:45:33.711Z,17.20
2017-07-30T02:48:01.228Z,17.20
2017-07-30T02:50:28.679Z,17.20
2017-07-30T02:52:56.247Z,17.20
2017-07-30T02:55:23.704Z,17.20
2017-07-30T02:57:51.935Z,17.30
2017-07-30T03:00:19.435Z,17.30
2017-07-30T03:02:46.990Z,17.30
2017-07-30T03:05:14.547Z,17.40
2017-07-30T03:07:42.031Z,17.40
2017-07-30T03:10:09.500Z,17.40
2017-07-30T03:12:36.965Z,17.40
2017-07-30T03:15:04.434Z,17.40
2017-07-30T03:17:31.942Z,17.40
2017-07-30T03:20:00.214Z,17.50
2017-07-30T03:22:28.537Z,17.50
2017-07-30T03:24:55.982Z,17.50
2017-07-30T03:27:23.450Z,17.50
2017-07-30T03:29:50.937Z,17.50
2017-07-30T03:32:18.419Z,17.50
2017-07-30T03:34:46.695Z,17.50
2017-07-30T03:37:14.938Z,17.50
2017-07-30T03:39:42.433Z,17.50
2017-07-30T03:42:10.695Z,17.60
2017-07-30T03:44:38.163Z,17.60
2017-07-30T03:47:06.428Z,17.60
2017-07-30T03:49:33.910Z,17.60
2017-07-30T03:52:02.161Z,17.60
2017-07-30T03:54:29.742Z,17.60
2017-07-30T03:56:57.204Z,17.60
2017-07-30T03:59:24.736Z,17.60
2017-07-30T04:01:52.298Z,17.60
2017-07-30T04:04:19.852Z,17.60
2017-07-30T04:06:47.416Z,17.60
2017-07-30T04:09:14.872Z,17.70
2017-07-30T04:11:43.152Z,17.70
2017-07-30T04:14:11.403Z,17.70
2017-07-30T04:16:38.883Z,17.70
2017-07-30T04:19:07.122Z,17.80
2017-07-30T04:21:34.602Z,17.80
2017-07-30T04:24:02.064Z,17.90
2017-07-30T04:26:29.629Z,17.90
2017-07-30T04:28:57.179Z,17.90
2017-07-30T04:31:24.653Z,17.90
2017-07-30T04:33:52.889Z,18.00
2017-07-30T04:36:20.371Z,18.00
2017-07-30T04:38:47.835Z,18.10
2017-07-30T04:41:15.388Z,18.10
2017-07-30T04:43:42.856Z,18.10
2017-07-30T04:46:11.099Z,18.10
2017-07-30T04:48:38.563Z,18.10
2017-07-30T04:51:06.034Z,18.20
2017-07-30T04:53:34.272Z,18.20
2017-07-30T04:56:01.763Z,18.20
2017-07-30T04:58:30.009Z,18.30
2017-07-30T05:00:57.486Z,18.30
2017-07-30T05:03:25.047Z,18.30
2017-07-30T05:05:52.607Z,18.40
2017-07-30T05:08:20.167Z,18.40
2017-07-30T05:10:47.744Z,18.50
2017-07-30T05:13:15.970Z,18.60
2017-07-30T05:15:43.446Z,18.60
2017-07-30T05:18:11.015Z,18.60
2017-07-30T05:20:38.495Z,18.70
2017-07-30T05:23:06.753Z,18.80
2017-07-30T05:25:34.211Z,18.80
2017-07-30T05:28:01.697Z,18.80
2017-07-30T05:30:29.218Z,18.90
2017-07-30T05:32:56.784Z,19.00
2017-07-30T05:35:24.339Z,19.10
2017-07-30T05:37:51.799Z,19.10
2017-07-30T05:40:19.254Z,19.20
2017-07-30T05:42:46.831Z,19.30
2017-07-30T05:45:15.054Z,19.40
2017-07-30T05:47:42.542Z,19.40
2017-07-30T05:50:10.020Z,19.40
2017-07-30T05:52:38.283Z,19.50
2017-07-30T05:55:05.836Z,19.50
2017-07-30T05:57:33.305Z,19.60
2017-07-30T06:00:01.563Z,19.70
2017-07-30T06:02:29.032Z,19.70
2017-07-30T06:04:57.300Z,19.80
2017-07-30T06:07:24.759Z,19.80
2017-07-30T06:09:52.216Z,20.10
2017-07-30T06:12:19.683Z,20.40
2017-07-30T06:14:47.948Z,21.30
2017-07-30T06:17:15.511Z,21.30
2017-07-30T06:19:43.749Z,21.40
2017-07-30T06:22:11.210Z,21.40
2017-07-30T06:24:38.672Z,21.60
2017-07-30T06:27:06.139Z,22.00
2017-07-30T06:29:33.630Z,23.00
2017-07-30T06:32:01.100Z,23.20
2017-07-30T06:34:28.617Z,23.00
2017-07-30T06:36:56.069Z,22.40
2017-07-30T06:39:23.583Z,22.00
2017-07-30T06:41:51.047Z,21.90
2017-07-30T06:44:18.544Z,21.90
2017-07-30T06:46:46.021Z,21.70
2017-07-30T06:49:14.276Z,21.50
2017-07-30T06:51:41.839Z,21.40
2017-07-30T06:54:09.300Z,21.30
2017-07-30T06:56:37.544Z,21.10
2017-07-30T06:59:05.021Z,21.10
2017-07-30T07:01:32.483Z,20.90
2017-07-30T07:04:00.052Z,20.90
2017-07-30T07:06:28.325Z,20.80
2017-07-30T07:08:56.602Z,20.80
2017-07-30T07:11:24.870Z,20.80
2017-07-30T07:13:52.400Z,20.80
2017-07-30T07:16:19.879Z,21.00
2017-07-30T07:18:47.440Z,21.10
2017-07-30T07:21:14.903Z,21.10
2017-07-30T07:26:17.203Z,21.20
2017-07-30T07:28:44.652Z,21.30
2017-07-30T07:31:12.969Z,21.30
2017-07-30T07:33:40.482Z,21.20
2017-07-30T07:36:08.746Z,21.50
2017-07-30T07:38:36.368Z,21.40
2017-07-30T07:41:03.988Z,21.70
2017-07-30T07:43:32.210Z,22.00
2017-07-30T07:45:59.676Z,22.00
2017-07-30T07:48:27.192Z,21.90
2017-07-30T07:50:54.723Z,21.60
2017-07-30T07:53:23.034Z,21.30
2017-07-30T07:55:50.507Z,21.30
2017-07-30T07:58:17.966Z,21.20
2017-07-30T08:00:45.463Z,21.20
2017-07-30T08:03:13.419Z,21.10
2017-07-30T08:05:40.896Z,21.10
2017-07-30T08:08:08.448Z,21.10
2017-07-30T08:10:35.910Z,21.20
2017-07-30T08:13:04.176Z,21.60
2017-07-30T08:15:31.632Z,21.60
2017-07-30T08:17:59.232Z,21.90
2017-07-30T08:20:26.698Z,22.20
2017-07-30T08:22:54.279Z,22.30
2017-07-30T08:25:21.775Z,22.40
2017-07-30T08:27:49.252Z,22.60
2017-07-30T08:30:17.476Z,22.60
2017-07-30T08:32:44.934Z,22.60
2017-07-30T08:35:12.390Z,22.50
2017-07-30T08:37:39.855Z,22.40
2017-07-30T08:40:07.655Z,22.30
2017-07-30T08:42:35.116Z,22.40
2017-07-30T08:45:02.573Z,22.70
2017-07-30T08:47:30.174Z,23.00
2017-07-30T08:49:57.642Z,23.00
2017-07-30T08:52:25.105Z,23.00
2017-07-30T08:54:52.616Z,23.10
2017-07-30T08:57:20.090Z,23.20
2017-07-30T08:59:47.761Z,23.30
2017-07-30T09:02:15.247Z,23.40
2017-07-30T09:04:42.719Z,23.10
2017-07-30T09:07:10.175Z,22.80
2017-07-30T09:09:37.668Z,22.50
2017-07-30T09:12:05.121Z,22.10
2017-07-30T09:14:32.592Z,21.50
2017-07-30T09:17:00.094Z,21.00
2017-07-30T09:19:28.277Z,20.70
2017-07-30T09:21:56.534Z,20.20
2017-07-30T09:24:24.003Z,20.20
2017-07-30T09:26:51.467Z,20.40
2017-07-30T09:29:19.694Z,21.00
2017-07-30T09:31:47.216Z,20.90
2017-07-30T09:34:14.742Z,21.20
2017-07-30T09:36:42.212Z,21.20
2017-07-30T09:39:10.474Z,21.10
2017-07-30T09:41:38.028Z,21.10
2017-07-30T09:44:05.544Z,21.20
2017-07-30T09:46:33.003Z,21.60
2017-07-30T09:49:00.491Z,22.00
2017-07-30T09:51:28.779Z,22.40
2017-07-30T09:56:30.260Z,22.70
2017-07-30T09:58:57.806Z,22.60
2017-07-30T10:01:25.264Z,22.60
2017-07-30T10:03:52.720Z,22.60
2017-07-30T10:06:20.182Z,22.50
2017-07-30T10:08:47.711Z,22.30
2017-07-30T10:11:15.182Z,21.90
2017-07-30T10:13:42.652Z,21.50
2017-07-30T10:16:10.874Z,21.20
2017-07-30T10:18:38.344Z,21.20
2017-07-30T10:21:05.846Z,21.30
2017-07-30T10:23:34.077Z,21.50
2017-07-30T10:26:01.588Z,21.40
2017-07-30T10:28:29.812Z,21.80
2017-07-30T10:30:57.286Z,21.70
2017-07-30T10:33:24.743Z,22.00
2017-07-30T10:35:52.226Z,22.40
2017-07-30T10:38:20.504Z,23.00
2017-07-30T10:40:48.940Z,23.00
2017-07-30T10:43:16.411Z,23.20
2017-07-30T10:45:43.883Z,23.10
2017-07-30T10:48:11.584Z,22.90
2017-07-30T10:50:39.056Z,22.50
2017-07-30T10:53:06.516Z,22.00
2017-07-30T10:55:33.978Z,21.50
2017-07-30T10:58:01.697Z,21.00
2017-07-30T11:00:29.154Z,20.50
2017-07-30T11:02:56.841Z,20.20
2017-07-30T11:05:24.304Z,20.00
2017-07-30T11:07:51.790Z,19.80
2017-07-30T11:10:19.268Z,19.90
2017-07-30T11:12:46.763Z,20.30
2017-07-30T11:15:14.240Z,20.80
2017-07-30T11:17:41.852Z,21.20
2017-07-30T11:20:10.570Z,21.10
2017-07-30T11:22:38.327Z,21.10
2017-07-30T11:25:05.798Z,21.10
2017-07-30T11:27:33.265Z,20.90
2017-07-30T11:30:00.884Z,20.90
2017-07-30T11:32:29.172Z,21.50
2017-07-30T11:34:56.707Z,21.40
2017-07-30T11:37:24.935Z,21.70
2017-07-30T11:39:52.408Z,21.70
2017-07-30T11:42:19.872Z,22.10
2017-07-30T11:44:47.443Z,22.20
2017-07-30T11:47:14.939Z,22.30
2017-07-30T11:49:42.394Z,22.40
2017-07-30T11:52:09.921Z,22.40
2017-07-30T11:54:37.627Z,22.30
2017-07-30T11:57:05.176Z,22.00
2017-07-30T11:59:32.628Z,22.00
2017-07-30T12:02:00.130Z,22.10
2017-07-30T12:04:27.587Z,22.00
2017-07-30T12:06:55.043Z,21.90
2017-07-30T12:09:22.596Z,22.20
2017-07-30T12:11:50.094Z,22.30
2017-07-30T12:14:18.337Z,22.50
2017-07-30T12:16:45.816Z,22.40
2017-07-30T12:19:14.276Z,22.20
2017-07-30T12:21:41.827Z,22.20
2017-07-30T12:24:09.412Z,22.30
2017-07-30T12:26:37.715Z,22.40
2017-07-30T12:29:05.176Z,22.40
2017-07-30T12:31:32.803Z,22.40
2017-07-30T12:34:01.126Z,22.10
2017-07-30T12:36:28.587Z,22.00
2017-07-30T12:38:56.215Z,22.30
2017-07-30T12:41:23.759Z,22.30
2017-07-30T12:43:52.041Z,22.50
2017-07-30T12:46:20.708Z,22.50
2017-07-30T12:48:48.263Z,22.50
2017-07-30T12:51:15.724Z,22.40
2017-07-30T12:53:43.292Z,22.50
2017-07-30T12:56:10.753Z,22.40
2017-07-30T12:58:39.015Z,22.40
2017-07-30T13:01:06.493Z,22.40
2017-07-30T13:03:34.748Z,22.00
2017-07-30T13:06:02.216Z,22.00
2017-07-30T13:08:30.487Z,22.10
2017-07-30T13:10:58.048Z,22.10
2017-07-30T13:13:26.275Z,22.30
2017-07-30T13:15:53.781Z,22.20
2017-07-30T13:18:22.062Z,22.30
2017-07-30T13:20:50.279Z,22.00
2017-07-30T13:23:17.747Z,22.00
2017-07-30T13:25:45.214Z,22.10
2017-07-30T13:28:12.704Z,22.10
2017-07-30T13:30:40.979Z,22.50
2017-07-30T13:33:09.202Z,22.70
2017-07-30T13:35:36.679Z,22.70
2017-07-30T13:38:04.164Z,22.90
2017-07-30T13:40:31.708Z,23.20
2017-07-30T13:42:59.188Z,23.00
2017-07-30T13:45:27.412Z,23.20
2017-07-30T13:47:54.931Z,23.10
2017-07-30T13:50:23.163Z,23.00
2017-07-30T13:52:50.746Z,23.00
2017-07-30T13:55:18.205Z,22.90
2017-07-30T13:57:45.751Z,22.80
2017-07-30T14:00:13.233Z,22.60
2017-07-30T14:02:41.445Z,22.70
2017-07-30T14:05:08.919Z,22.70
2017-07-30T14:07:36.366Z,22.80
2017-07-30T14:10:03.832Z,22.90
2017-07-30T14:12:31.301Z,23.10
2017-07-30T14:14:59.512Z,23.00
2017-07-30T14:17:27.722Z,22.60
2017-07-30T14:19:55.180Z,22.60
2017-07-30T14:22:22.667Z,22.60
2017-07-30T14:24:50.228Z,22.80
2017-07-30T14:27:17.793Z,22.70
2017-07-30T14:29:45.313Z,22.80
2017-07-30T14:32:12.795Z,23.00
2017-07-30T14:34:40.360Z,23.10
2017-07-30T14:37:07.837Z,23.00
2017-07-30T14:39:36.317Z,22.60
2017-07-30T14:42:04.544Z,22.50
2017-07-30T14:44:32.007Z,22.50
2017-07-30T14:46:59.483Z,22.40
2017-07-30T14:49:26.944Z,22.30
2017-07-30T14:51:54.402Z,22.20
2017-07-30T14:54:22.654Z,22.30
2017-07-30T14:56:50.156Z,22.30
2017-07-30T14:59:18.376Z,22.60
2017-07-30T15:01:45.852Z,22.60
2017-07-30T15:04:13.303Z,22.60
2017-07-30T15:06:40.771Z,22.90
2017-07-30T15:09:08.242Z,23.10
2017-07-30T15:11:36.480Z,22.60
2017-07-30T15:14:03.944Z,22.50
2017-07-30T15:16:31.457Z,22.40
2017-07-30T15:18:58.903Z,22.40
2017-07-30T15:21:26.393Z,22.40
2017-07-30T15:23:53.886Z,22.60
2017-07-30T15:26:21.427Z,22.50
2017-07-30T15:28:48.899Z,22.60
2017-07-30T15:31:16.367Z,22.40
2017-07-30T15:33:43.824Z,22.50
2017-07-30T15:36:12.056Z,22.50
2017-07-30T15:38:39.557Z,22.40
2017-07-30T15:41:07.039Z,22.30
2017-07-30T15:43:34.521Z,22.20
2017-07-30T15:46:02.029Z,22.00
2017-07-30T15:48:29.487Z,22.20
2017-07-30T15:50:57.077Z,22.40
2017-07-30T15:53:24.548Z,22.50
2017-07-30T15:55:52.088Z,22.60
2017-07-30T15:58:19.569Z,22.60
2017-07-30T16:00:47.042Z,22.70
2017-07-30T16:03:14.516Z,22.40
2017-07-30T16:05:41.992Z,22.30
2017-07-30T16:08:10.227Z,22.60
2017-07-30T16:10:37.708Z,22.60
2017-07-30T16:13:05.293Z,22.60
2017-07-30T16:15:33.506Z,22.40
2017-07-30T16:18:01.015Z,22.40
2017-07-30T16:20:29.289Z,22.30
2017-07-30T16:22:56.850Z,22.20
2017-07-30T16:25:25.112Z,22.10
2017-07-30T16:27:52.653Z,22.10
2017-07-30T16:30:20.133Z,22.30
2017-07-30T16:32:47.582Z,22.30
2017-07-30T16:35:15.060Z,22.20
2017-07-30T16:37:43.315Z,22.20
2017-07-30T16:40:10.788Z,22.20
2017-07-30T16:42:38.311Z,22.20
2017-07-30T16:45:05.781Z,21.90
2017-07-30T16:47:33.259Z,21.90
2017-07-30T16:50:00.780Z,21.90
2017-07-30T16:52:28.246Z,21.80
2017-07-30T16:54:55.827Z,21.90
2017-07-30T16:57:24.099Z,21.80
2017-07-30T16:59:52.370Z,21.80
2017-07-30T17:02:19.830Z,21.80
2017-07-30T17:04:48.072Z,21.70
2017-07-30T17:07:15.527Z,21.70
2017-07-30T17:09:43.100Z,21.70
2017-07-30T17:12:10.572Z,21.70
2017-07-30T17:14:38.028Z,21.60
2017-07-30T17:17:05.515Z,21.60
2017-07-30T17:19:33.764Z,21.50
2017-07-30T17:22:01.215Z,21.50
2017-07-30T17:24:28.712Z,21.50
2017-07-30T17:26:56.205Z,21.60
2017-07-30T17:29:23.675Z,21.60
2017-07-30T17:31:51.169Z,21.60
2017-07-30T17:34:19.459Z,21.50
2017-07-30T17:36:46.983Z,21.50
2017-07-30T17:39:14.468Z,21.50
2017-07-30T17:41:41.943Z,21.50
2017-07-30T17:44:09.451Z,21.50
2017-07-30T17:46:36.936Z,21.40
2017-07-30T17:49:04.400Z,21.30
2017-07-30T17:51:31.877Z,21.20
2017-07-30T17:53:59.347Z,21.10
2017-07-30T17:56:26.860Z,21.10
2017-07-30T17:58:54.326Z,21.10
2017-07-30T18:01:21.783Z,20.90
2017-07-30T18:03:52.404Z,20.70
2017-07-30T18:06:20.640Z,20.40
2017-07-30T18:08:48.124Z,20.40
2017-07-30T18:11:15.675Z,20.20
2017-07-30T18:13:43.935Z,20.10
2017-07-30T18:16:11.411Z,20.00
2017-07-30T18:18:39.649Z,19.90
2017-07-30T18:21:07.106Z,19.90
2017-07-30T18:23:34.587Z,19.70
2017-07-30T18:26:02.146Z,19.60
2017-07-30T18:28:29.702Z,19.60
2017-07-30T18:30:57.218Z,19.50
2017-07-30T18:33:24.724Z,19.40
2017-07-30T18:35:52.195Z,19.30
2017-07-30T18:38:20.442Z,19.20
2017-07-30T18:40:47.934Z,19.10
2017-07-30T18:43:16.149Z,19.00
2017-07-30T18:45:43.599Z,18.90
2017-07-30T18:48:11.168Z,18.90
2017-07-30T18:50:38.624Z,18.90
2017-07-30T18:53:06.118Z,18.80
2017-07-30T18:55:34.391Z,18.70
2017-07-30T18:58:01.856Z,18.70
2017-07-30T19:00:30.098Z,18.60
2017-07-30T19:02:57.684Z,18.60
2017-07-30T19:05:25.147Z,18.50
2017-07-30T19:07:53.413Z,18.50
2017-07-30T19:10:20.900Z,18.50
2017-07-30T19:12:48.371Z,18.50
2017-07-30T19:15:15.820Z,18.50
2017-07-30T19:17:43.403Z,18.40
2017-07-30T19:20:10.950Z,18.40
2017-07-30T19:22:38.483Z,18.30
2017-07-30T19:25:06.016Z,18.20
2017-07-30T19:27:33.475Z,18.10
2017-07-30T19:30:00.935Z,18.10
2017-07-30T19:32:28.394Z,18.00
2017-07-30T19:34:56.660Z,17.90
2017-07-30T19:37:24.110Z,17.90
2017-07-30T19:39:51.587Z,17.90
2017-07-30T19:42:19.856Z,17.70
2017-07-30T19:44:48.242Z,17.70
2017-07-30T19:47:15.723Z,17.70
2017-07-30T19:49:43.208Z,17.70
2017-07-30T19:52:10.694Z,17.70
2017-07-30T19:54:38.170Z,17.60
2017-07-30T19:57:05.743Z,17.60
2017-07-30T19:59:33.274Z,17.60
2017-07-30T20:02:00.778Z,17.60
2017-07-30T20:04:28.288Z,17.50
2017-07-30T20:06:55.776Z,17.50
2017-07-30T20:09:23.407Z,17.50
2017-07-30T20:11:52.236Z,17.40
2017-07-30T20:14:19.796Z,17.30
2017-07-30T20:16:47.617Z,17.30
2017-07-30T20:19:16.169Z,17.30
2017-07-30T20:21:43.781Z,17.30
2017-07-30T20:24:11.352Z,17.30
2017-07-30T20:26:38.904Z,17.30
2017-07-30T20:29:07.168Z,17.20
2017-07-30T20:31:35.440Z,17.20
2017-07-30T20:34:02.909Z,17.20
2017-07-30T20:36:30.756Z,17.20
2017-07-30T20:38:59.044Z,17.20
2017-07-30T20:41:27.361Z,17.20
2017-07-30T20:43:54.840Z,17.20
2017-07-30T20:46:24.171Z,17.20
2017-07-30T20:48:53.987Z,17.20
2017-07-30T20:51:21.698Z,17.20
2017-07-30T20:53:50.100Z,17.10
2017-07-30T20:56:17.676Z,17.10
2017-07-30T20:58:45.227Z,17.10
2017-07-30T21:01:12.950Z,17.10
2017-07-30T21:03:40.467Z,17.10
2017-07-30T21:06:08.734Z,17.10
2017-07-30T21:08:37.013Z,17.20
2017-07-30T21:11:05.519Z,17.20
2017-07-30T21:13:32.990Z,17.20
2017-07-30T21:16:00.491Z,17.30
2017-07-30T21:18:27.958Z,17.30
2017-07-30T21:20:55.420Z,17.30
2017-07-30T21:23:23.693Z,17.30
2017-07-30T21:25:51.937Z,17.40
2017-07-30T21:28:19.444Z,17.40
2017-07-30T21:30:46.907Z,17.40
2017-07-30T21:33:14.410Z,17.30
2017-07-30T21:35:41.945Z,17.30
2017-07-30T21:38:09.402Z,17.40
2017-07-30T21:40:36.925Z,17.40
2017-07-30T21:43:04.383Z,17.40
2017-07-30T21:45:32.612Z,17.30
2017-07-30T21:48:00.223Z,17.30
2017-07-30T21:50:27.683Z,17.40
2017-07-30T21:52:55.162Z,17.30
2017-07-30T21:55:22.632Z,17.30
2017-07-30T21:57:50.111Z,17.30
2017-07-30T22:00:17.585Z,17.20
2017-07-30T22:02:45.138Z,17.20
2017-07-30T22:05:13.392Z,17.20
2017-07-30T22:07:40.872Z,17.20
2017-07-30T22:10:08.444Z,17.10
2017-07-30T22:12:36.666Z,17.00
2017-07-30T22:15:04.940Z,17.00
2017-07-30T22:17:32.425Z,17.00
2017-07-30T22:19:59.892Z,16.90
2017-07-30T22:22:27.343Z,16.90
2017-07-30T22:24:54.830Z,16.80
2017-07-30T22:27:22.292Z,16.80
2017-07-30T22:29:49.773Z,16.80
2017-07-30T22:32:17.283Z,16.70
2017-07-30T22:34:45.514Z,16.70
2017-07-30T22:37:13.012Z,16.60
2017-07-30T22:39:40.491Z,16.60
2017-07-30T22:42:08.030Z,16.60
2017-07-30T22:44:36.305Z,16.50
2017-07-30T22:47:03.862Z,16.50
2017-07-30T22:49:31.345Z,16.40
2017-07-30T22:51:58.824Z,16.40
2017-07-30T22:54:26.425Z,16.40
2017-07-30T22:56:54.020Z,16.40
2017-07-30T22:59:21.495Z,16.40
2017-07-30T23:01:49.010Z,16.40
2017-07-30T23:04:16.476Z,16.40
2017-07-30T23:06:44.703Z,16.40
2017-07-30T23:09:12.247Z,16.40
2017-07-30T23:11:39.706Z,16.50
2017-07-30T23:14:07.237Z,16.50
2017-07-30T23:16:34.703Z,16.50
2017-07-30T23:19:02.235Z,16.50
2017-07-30T23:21:30.505Z,16.50
2017-07-30T23:23:57.967Z,16.50
2017-07-30T23:26:26.243Z,16.40
2017-07-30T23:28:53.795Z,16.40
2017-07-30T23:31:21.274Z,16.30
2017-07-30T23:33:49.498Z,16.20
2017-07-30T23:36:17.004Z,16.20
2017-07-30T23:38:45.233Z,16.20
2017-07-30T23:41:12.708Z,16.20
2017-07-30T23:43:40.186Z,16.20
2017-07-30T23:46:08.427Z,16.10
2017-07-30T23:48:35.899Z,16.10
2017-07-30T23:51:03.456Z,16.10
2017-07-30T23:53:30.922Z,16.10
2017-07-30T23:55:59.142Z,16.00
2017-07-30T23:58:26.644Z,16.00
